sensor_id;sensor_type;location;lat;lon;timestamp;P1;durP1;ratioP1;P2;durP2;ratioP2
545;SDS011;259;53.304;9.816;2023-01-31T00:01:23;2.90;;;1.30;;
545;SDS011;259;53.304;9.816;2023-01-31T00:03:56;1.40;;;1.07;;
545;SDS011;259;53.304;9.816;2023-01-31T00:06:26;2.73;;;1.23;;
545;SDS011;259;53.304;9.816;2023-01-31T00:09:01;1.50;;;1.00;;
545;SDS011;259;53.304;9.816;2023-01-31T00:11:29;1.53;;;0.73;;
545;SDS011;259;53.304;9.816;2023-01-31T00:13:56;1.57;;;1.03;;
545;SDS011;259;53.304;9.816;2023-01-31T00:16:24;2.40;;;1.00;;
545;SDS011;259;53.304;9.816;2023-01-31T00:18:50;2.70;;;1.23;;
545;SDS011;259;53.304;9.816;2023-01-31T00:21:17;2.70;;;1.30;;
545;SDS011;259;53.304;9.816;2023-01-31T00:23:48;1.50;;;0.70;;
545;SDS011;259;53.304;9.816;2023-01-31T00:26:25;1.47;;;1.03;;
545;SDS011;259;53.304;9.816;2023-01-31T00:28:58;1.40;;;1.10;;
545;SDS011;259;53.304;9.816;2023-01-31T00:31:27;2.57;;;1.13;;
545;SDS011;259;53.304;9.816;2023-01-31T00:33:54;1.83;;;1.00;;
545;SDS011;259;53.304;9.816;2023-01-31T00:36:31;2.80;;;0.97;;
545;SDS011;259;53.304;9.816;2023-01-31T00:38:59;2.07;;;1.30;;
545;SDS011;259;53.304;9.816;2023-01-31T00:41:27;1.53;;;0.90;;
545;SDS011;259;53.304;9.816;2023-01-31T00:43:54;1.60;;;0.90;;
545;SDS011;259;53.304;9.816;2023-01-31T00:46:21;3.80;;;1.40;;
545;SDS011;259;53.304;9.816;2023-01-31T00:48:48;2.60;;;1.30;;
545;SDS011;259;53.304;9.816;2023-01-31T00:51:14;1.67;;;1.17;;
545;SDS011;259;53.304;9.816;2023-01-31T00:53:40;2.83;;;1.50;;
545;SDS011;259;53.304;9.816;2023-01-31T00:56:09;1.83;;;1.13;;
545;SDS011;259;53.304;9.816;2023-01-31T00:58:37;1.53;;;1.00;;
545;SDS011;259;53.304;9.816;2023-01-31T01:01:04;2.30;;;1.00;;
545;SDS011;259;53.304;9.816;2023-01-31T01:03:35;1.67;;;0.80;;
545;SDS011;259;53.304;9.816;2023-01-31T01:06:02;2.07;;;1.30;;
545;SDS011;259;53.304;9.816;2023-01-31T01:08:29;1.10;;;1.00;;
545;SDS011;259;53.304;9.816;2023-01-31T01:10:55;2.10;;;1.27;;
545;SDS011;259;53.304;9.816;2023-01-31T01:13:35;1.40;;;1.10;;
545;SDS011;259;53.304;9.816;2023-01-31T01:16:07;1.87;;;0.97;;
545;SDS011;259;53.304;9.816;2023-01-31T01:18:36;3.30;;;1.80;;
545;SDS011;259;53.304;9.816;2023-01-31T01:21:09;1.17;;;1.07;;
545;SDS011;259;53.304;9.816;2023-01-31T01:23:38;2.70;;;1.53;;
545;SDS011;259;53.304;9.816;2023-01-31T01:26:05;1.90;;;1.70;;
545;SDS011;259;53.304;9.816;2023-01-31T01:28:40;1.60;;;0.90;;
545;SDS011;259;53.304;9.816;2023-01-31T01:31:07;1.23;;;1.10;;
545;SDS011;259;53.304;9.816;2023-01-31T01:33:35;2.33;;;1.10;;
545;SDS011;259;53.304;9.816;2023-01-31T01:36:02;2.73;;;1.23;;
545;SDS011;259;53.304;9.816;2023-01-31T01:38:29;1.83;;;0.97;;
545;SDS011;259;53.304;9.816;2023-01-31T01:40:58;2.43;;;1.03;;
545;SDS011;259;53.304;9.816;2023-01-31T01:43:37;1.83;;;1.00;;
545;SDS011;259;53.304;9.816;2023-01-31T01:46:35;2.77;;;1.27;;
545;SDS011;259;53.304;9.816;2023-01-31T01:49:17;2.10;;;1.17;;
545;SDS011;259;53.304;9.816;2023-01-31T01:51:53;1.60;;;1.20;;
545;SDS011;259;53.304;9.816;2023-01-31T01:54:26;2.30;;;1.03;;
545;SDS011;259;53.304;9.816;2023-01-31T01:57:00;3.43;;;1.27;;
545;SDS011;259;53.304;9.816;2023-01-31T01:59:30;2.83;;;1.53;;
545;SDS011;259;53.304;9.816;2023-01-31T02:02:03;3.80;;;1.47;;
545;SDS011;259;53.304;9.816;2023-01-31T02:04:30;1.93;;;1.20;;
545;SDS011;259;53.304;9.816;2023-01-31T02:07:00;2.97;;;1.10;;
545;SDS011;259;53.304;9.816;2023-01-31T02:12:18;2.10;;;1.17;;
545;SDS011;259;53.304;9.816;2023-01-31T02:14:45;1.73;;;0.93;;
545;SDS011;259;53.304;9.816;2023-01-31T02:17:14;2.03;;;1.30;;
545;SDS011;259;53.304;9.816;2023-01-31T02:31:20;2.73;;;0.77;;
545;SDS011;259;53.304;9.816;2023-01-31T02:34:08;1.77;;;1.03;;
545;SDS011;259;53.304;9.816;2023-01-31T02:43:01;1.83;;;1.17;;
545;SDS011;259;53.304;9.816;2023-01-31T02:48:23;1.10;;;1.00;;
545;SDS011;259;53.304;9.816;2023-01-31T02:56:30;1.53;;;1.00;;
545;SDS011;259;53.304;9.816;2023-01-31T02:59:06;2.67;;;1.50;;
545;SDS011;259;53.304;9.816;2023-01-31T03:01:41;1.93;;;1.20;;
545;SDS011;259;53.304;9.816;2023-01-31T03:04:11;1.83;;;1.00;;
545;SDS011;259;53.304;9.816;2023-01-31T03:06:43;2.37;;;1.20;;
545;SDS011;259;53.304;9.816;2023-01-31T03:12:31;3.90;;;1.00;;
545;SDS011;259;53.304;9.816;2023-01-31T03:18:25;2.63;;;1.10;;
545;SDS011;259;53.304;9.816;2023-01-31T03:21:02;1.70;;;1.30;;
545;SDS011;259;53.304;9.816;2023-01-31T03:23:38;1.80;;;1.07;;
545;SDS011;259;53.304;9.816;2023-01-31T03:26:08;2.83;;;1.47;;
545;SDS011;259;53.304;9.816;2023-01-31T03:28:35;1.70;;;1.50;;
545;SDS011;259;53.304;9.816;2023-01-31T03:31:16;1.20;;;0.90;;
545;SDS011;259;53.304;9.816;2023-01-31T03:33:53;2.07;;;1.00;;
545;SDS011;259;53.304;9.816;2023-01-31T03:47:42;1.53;;;1.07;;
545;SDS011;259;53.304;9.816;2023-01-31T03:50:13;3.07;;;1.10;;
545;SDS011;259;53.304;9.816;2023-01-31T03:52:51;1.37;;;0.87;;
545;SDS011;259;53.304;9.816;2023-01-31T03:55:26;1.33;;;0.90;;
545;SDS011;259;53.304;9.816;2023-01-31T03:57:59;2.50;;;1.20;;
545;SDS011;259;53.304;9.816;2023-01-31T04:00:28;3.40;;;1.10;;
545;SDS011;259;53.304;9.816;2023-01-31T04:03:00;2.20;;;1.13;;
545;SDS011;259;53.304;9.816;2023-01-31T04:05:35;2.13;;;1.10;;
545;SDS011;259;53.304;9.816;2023-01-31T04:08:01;2.77;;;1.43;;
545;SDS011;259;53.304;9.816;2023-01-31T04:10:27;1.60;;;0.80;;
545;SDS011;259;53.304;9.816;2023-01-31T04:12:52;3.33;;;1.17;;
545;SDS011;259;53.304;9.816;2023-01-31T04:15:18;1.50;;;1.40;;
545;SDS011;259;53.304;9.816;2023-01-31T04:17:44;4.40;;;1.37;;
545;SDS011;259;53.304;9.816;2023-01-31T04:20:10;2.60;;;1.27;;
545;SDS011;259;53.304;9.816;2023-01-31T04:22:37;3.30;;;1.33;;
545;SDS011;259;53.304;9.816;2023-01-31T04:25:03;1.60;;;1.20;;
545;SDS011;259;53.304;9.816;2023-01-31T04:27:30;2.10;;;1.10;;
545;SDS011;259;53.304;9.816;2023-01-31T04:29:56;4.10;;;1.27;;
545;SDS011;259;53.304;9.816;2023-01-31T04:32:21;1.63;;;1.03;;
545;SDS011;259;53.304;9.816;2023-01-31T04:34:47;1.90;;;1.30;;
545;SDS011;259;53.304;9.816;2023-01-31T04:37:13;2.80;;;1.33;;
545;SDS011;259;53.304;9.816;2023-01-31T04:39:38;2.83;;;1.20;;
545;SDS011;259;53.304;9.816;2023-01-31T04:42:04;2.40;;;1.23;;
545;SDS011;259;53.304;9.816;2023-01-31T04:44:30;2.43;;;1.00;;
545;SDS011;259;53.304;9.816;2023-01-31T04:46:55;2.27;;;1.27;;
545;SDS011;259;53.304;9.816;2023-01-31T04:49:21;2.37;;;1.20;;
545;SDS011;259;53.304;9.816;2023-01-31T04:51:47;2.90;;;1.00;;
545;SDS011;259;53.304;9.816;2023-01-31T04:54:12;4.40;;;1.20;;
545;SDS011;259;53.304;9.816;2023-01-31T04:56:38;2.57;;;1.10;;
545;SDS011;259;53.304;9.816;2023-01-31T04:59:04;1.37;;;1.00;;
545;SDS011;259;53.304;9.816;2023-01-31T05:01:29;4.10;;;1.30;;
545;SDS011;259;53.304;9.816;2023-01-31T05:03:55;1.83;;;1.10;;
545;SDS011;259;53.304;9.816;2023-01-31T05:06:21;2.27;;;1.20;;
545;SDS011;259;53.304;9.816;2023-01-31T05:08:47;2.43;;;1.17;;
545;SDS011;259;53.304;9.816;2023-01-31T05:11:12;2.87;;;1.30;;
545;SDS011;259;53.304;9.816;2023-01-31T05:13:38;1.23;;;0.90;;
545;SDS011;259;53.304;9.816;2023-01-31T05:16:05;3.67;;;1.47;;
545;SDS011;259;53.304;9.816;2023-01-31T05:18:33;2.30;;;1.20;;
545;SDS011;259;53.304;9.816;2023-01-31T05:20:59;2.53;;;1.20;;
545;SDS011;259;53.304;9.816;2023-01-31T05:23:27;1.90;;;0.90;;
545;SDS011;259;53.304;9.816;2023-01-31T05:25:53;4.60;;;1.90;;
545;SDS011;259;53.304;9.816;2023-01-31T05:28:19;2.40;;;1.53;;
545;SDS011;259;53.304;9.816;2023-01-31T05:30:45;1.63;;;1.13;;
545;SDS011;259;53.304;9.816;2023-01-31T05:33:10;3.70;;;1.43;;
545;SDS011;259;53.304;9.816;2023-01-31T05:35:36;1.93;;;1.03;;
545;SDS011;259;53.304;9.816;2023-01-31T05:38:03;2.90;;;1.53;;
545;SDS011;259;53.304;9.816;2023-01-31T05:40:29;3.60;;;1.77;;
545;SDS011;259;53.304;9.816;2023-01-31T05:42:55;2.13;;;1.30;;
545;SDS011;259;53.304;9.816;2023-01-31T05:45:24;2.27;;;1.10;;
545;SDS011;259;53.304;9.816;2023-01-31T05:47:51;3.07;;;1.30;;
545;SDS011;259;53.304;9.816;2023-01-31T05:50:17;3.83;;;1.83;;
545;SDS011;259;53.304;9.816;2023-01-31T05:53:05;3.53;;;1.50;;
545;SDS011;259;53.304;9.816;2023-01-31T05:55:30;2.87;;;1.20;;
545;SDS011;259;53.304;9.816;2023-01-31T05:57:56;2.37;;;1.63;;
545;SDS011;259;53.304;9.816;2023-01-31T06:00:22;1.27;;;1.17;;
545;SDS011;259;53.304;9.816;2023-01-31T06:02:48;1.90;;;1.17;;
545;SDS011;259;53.304;9.816;2023-01-31T06:05:14;1.70;;;1.37;;
545;SDS011;259;53.304;9.816;2023-01-31T06:07:40;2.90;;;1.40;;
545;SDS011;259;53.304;9.816;2023-01-31T06:10:07;3.60;;;1.93;;
545;SDS011;259;53.304;9.816;2023-01-31T06:12:35;2.43;;;1.43;;
545;SDS011;259;53.304;9.816;2023-01-31T06:15:01;2.33;;;1.00;;
545;SDS011;259;53.304;9.816;2023-01-31T06:17:28;3.33;;;1.00;;
545;SDS011;259;53.304;9.816;2023-01-31T06:19:53;3.13;;;2.20;;
545;SDS011;259;53.304;9.816;2023-01-31T06:22:19;3.70;;;1.17;;
545;SDS011;259;53.304;9.816;2023-01-31T06:24:45;1.67;;;1.27;;
545;SDS011;259;53.304;9.816;2023-01-31T06:27:10;2.83;;;1.43;;
545;SDS011;259;53.304;9.816;2023-01-31T06:29:36;2.13;;;1.20;;
545;SDS011;259;53.304;9.816;2023-01-31T06:32:02;2.30;;;1.77;;
545;SDS011;259;53.304;9.816;2023-01-31T06:34:28;3.77;;;1.80;;
545;SDS011;259;53.304;9.816;2023-01-31T06:36:54;1.87;;;1.33;;
545;SDS011;259;53.304;9.816;2023-01-31T06:39:20;4.10;;;1.30;;
545;SDS011;259;53.304;9.816;2023-01-31T06:41:45;3.00;;;1.47;;
545;SDS011;259;53.304;9.816;2023-01-31T06:44:11;3.67;;;1.77;;
545;SDS011;259;53.304;9.816;2023-01-31T06:46:37;3.03;;;1.50;;
545;SDS011;259;53.304;9.816;2023-01-31T06:49:02;2.40;;;1.80;;
545;SDS011;259;53.304;9.816;2023-01-31T06:51:28;3.00;;;1.20;;
545;SDS011;259;53.304;9.816;2023-01-31T06:53:54;2.30;;;1.50;;
545;SDS011;259;53.304;9.816;2023-01-31T06:56:20;2.47;;;1.10;;
545;SDS011;259;53.304;9.816;2023-01-31T06:58:46;2.90;;;1.70;;
545;SDS011;259;53.304;9.816;2023-01-31T07:01:13;3.93;;;1.20;;
545;SDS011;259;53.304;9.816;2023-01-31T07:03:39;2.33;;;1.53;;
545;SDS011;259;53.304;9.816;2023-01-31T07:06:06;3.80;;;1.40;;
545;SDS011;259;53.304;9.816;2023-01-31T07:08:33;3.00;;;1.40;;
545;SDS011;259;53.304;9.816;2023-01-31T07:10:59;3.90;;;1.80;;
545;SDS011;259;53.304;9.816;2023-01-31T07:13:28;2.73;;;1.73;;
545;SDS011;259;53.304;9.816;2023-01-31T07:15:54;1.97;;;1.00;;
545;SDS011;259;53.304;9.816;2023-01-31T07:18:20;2.57;;;1.33;;
545;SDS011;259;53.304;9.816;2023-01-31T07:20:46;2.07;;;1.40;;
545;SDS011;259;53.304;9.816;2023-01-31T07:23:13;3.27;;;1.40;;
545;SDS011;259;53.304;9.816;2023-01-31T07:25:39;3.33;;;1.33;;
545;SDS011;259;53.304;9.816;2023-01-31T07:28:04;1.40;;;1.30;;
545;SDS011;259;53.304;9.816;2023-01-31T07:30:30;1.90;;;1.13;;
545;SDS011;259;53.304;9.816;2023-01-31T07:32:56;2.77;;;1.30;;
545;SDS011;259;53.304;9.816;2023-01-31T07:35:21;3.07;;;1.57;;
545;SDS011;259;53.304;9.816;2023-01-31T07:37:50;2.40;;;1.67;;
545;SDS011;259;53.304;9.816;2023-01-31T07:40:16;1.77;;;1.33;;
545;SDS011;259;53.304;9.816;2023-01-31T07:42:42;4.10;;;1.77;;
545;SDS011;259;53.304;9.816;2023-01-31T07:45:12;3.17;;;1.73;;
545;SDS011;259;53.304;9.816;2023-01-31T07:47:39;9.63;;;3.10;;
545;SDS011;259;53.304;9.816;2023-01-31T07:50:06;4.47;;;2.47;;
545;SDS011;259;53.304;9.816;2023-01-31T07:52:33;4.50;;;2.13;;
545;SDS011;259;53.304;9.816;2023-01-31T07:54:59;10.40;;;3.23;;
545;SDS011;259;53.304;9.816;2023-01-31T07:57:24;7.67;;;2.67;;
545;SDS011;259;53.304;9.816;2023-01-31T07:59:50;5.30;;;2.77;;
545;SDS011;259;53.304;9.816;2023-01-31T08:02:16;3.70;;;2.10;;
545;SDS011;259;53.304;9.816;2023-01-31T08:05:01;6.47;;;1.83;;
545;SDS011;259;53.304;9.816;2023-01-31T08:07:27;10.53;;;2.53;;
545;SDS011;259;53.304;9.816;2023-01-31T08:09:54;288.53;;;156.37;;
545;SDS011;259;53.304;9.816;2023-01-31T08:12:19;44.23;;;27.90;;
545;SDS011;259;53.304;9.816;2023-01-31T08:14:45;25.13;;;16.83;;
545;SDS011;259;53.304;9.816;2023-01-31T08:17:11;45.30;;;25.90;;
545;SDS011;259;53.304;9.816;2023-01-31T08:19:37;39.23;;;26.57;;
545;SDS011;259;53.304;9.816;2023-01-31T08:22:03;51.00;;;28.20;;
545;SDS011;259;53.304;9.816;2023-01-31T08:24:29;36.63;;;24.77;;
545;SDS011;259;53.304;9.816;2023-01-31T08:26:57;31.30;;;20.23;;
545;SDS011;259;53.304;9.816;2023-01-31T08:29:24;33.90;;;20.97;;
545;SDS011;259;53.304;9.816;2023-01-31T08:31:51;31.30;;;19.50;;
545;SDS011;259;53.304;9.816;2023-01-31T08:34:17;27.77;;;18.27;;
545;SDS011;259;53.304;9.816;2023-01-31T08:36:43;36.23;;;26.50;;
545;SDS011;259;53.304;9.816;2023-01-31T08:39:09;34.47;;;22.70;;
545;SDS011;259;53.304;9.816;2023-01-31T08:41:35;30.50;;;18.90;;
545;SDS011;259;53.304;9.816;2023-01-31T08:44:03;28.97;;;17.47;;
545;SDS011;259;53.304;9.816;2023-01-31T08:46:32;21.67;;;17.67;;
545;SDS011;259;53.304;9.816;2023-01-31T08:49:00;25.30;;;15.90;;
545;SDS011;259;53.304;9.816;2023-01-31T08:51:28;22.87;;;14.00;;
545;SDS011;259;53.304;9.816;2023-01-31T08:53:55;19.97;;;14.13;;
545;SDS011;259;53.304;9.816;2023-01-31T08:56:21;22.47;;;14.57;;
545;SDS011;259;53.304;9.816;2023-01-31T08:58:49;22.10;;;13.63;;
545;SDS011;259;53.304;9.816;2023-01-31T09:01:16;24.27;;;12.93;;
545;SDS011;259;53.304;9.816;2023-01-31T09:03:44;18.87;;;11.73;;
545;SDS011;259;53.304;9.816;2023-01-31T09:06:14;19.30;;;10.33;;
545;SDS011;259;53.304;9.816;2023-01-31T09:08:42;25.03;;;10.33;;
545;SDS011;259;53.304;9.816;2023-01-31T09:11:09;18.77;;;9.70;;
545;SDS011;259;53.304;9.816;2023-01-31T09:13:35;16.03;;;9.80;;
545;SDS011;259;53.304;9.816;2023-01-31T09:16:05;16.90;;;8.13;;
545;SDS011;259;53.304;9.816;2023-01-31T09:18:34;16.63;;;8.00;;
545;SDS011;259;53.304;9.816;2023-01-31T09:21:05;11.20;;;7.27;;
545;SDS011;259;53.304;9.816;2023-01-31T09:23:42;10.70;;;6.63;;
545;SDS011;259;53.304;9.816;2023-01-31T09:26:12;10.60;;;6.60;;
545;SDS011;259;53.304;9.816;2023-01-31T09:28:39;9.60;;;5.40;;
545;SDS011;259;53.304;9.816;2023-01-31T09:31:10;8.70;;;6.07;;
545;SDS011;259;53.304;9.816;2023-01-31T09:33:39;6.20;;;5.00;;
545;SDS011;259;53.304;9.816;2023-01-31T09:36:06;9.47;;;5.70;;
545;SDS011;259;53.304;9.816;2023-01-31T09:38:40;12.00;;;5.00;;
545;SDS011;259;53.304;9.816;2023-01-31T09:41:22;16.43;;;5.13;;
545;SDS011;259;53.304;9.816;2023-01-31T09:47:09;27.63;;;10.43;;
545;SDS011;259;53.304;9.816;2023-01-31T09:49:51;20.83;;;10.87;;
545;SDS011;259;53.304;9.816;2023-01-31T09:52:24;30.57;;;10.53;;
545;SDS011;259;53.304;9.816;2023-01-31T09:54:52;33.67;;;10.93;;
545;SDS011;259;53.304;9.816;2023-01-31T10:06:24;17.00;;;7.23;;
545;SDS011;259;53.304;9.816;2023-01-31T10:11:30;17.70;;;7.17;;
545;SDS011;259;53.304;9.816;2023-01-31T10:17:12;14.40;;;6.77;;
545;SDS011;259;53.304;9.816;2023-01-31T10:19:51;13.17;;;6.90;;
545;SDS011;259;53.304;9.816;2023-01-31T10:27:56;9.23;;;5.00;;
545;SDS011;259;53.304;9.816;2023-01-31T10:33:27;7.77;;;5.47;;
545;SDS011;259;53.304;9.816;2023-01-31T10:36:24;13.97;;;5.17;;
545;SDS011;259;53.304;9.816;2023-01-31T10:39:18;6.40;;;4.30;;
545;SDS011;259;53.304;9.816;2023-01-31T10:42:02;7.30;;;4.13;;
545;SDS011;259;53.304;9.816;2023-01-31T10:50:44;7.00;;;4.10;;
545;SDS011;259;53.304;9.816;2023-01-31T10:53:49;6.67;;;3.40;;
545;SDS011;259;53.304;9.816;2023-01-31T10:56:42;5.10;;;2.90;;
545;SDS011;259;53.304;9.816;2023-01-31T10:59:11;8.50;;;4.00;;
545;SDS011;259;53.304;9.816;2023-01-31T11:01:54;5.87;;;3.80;;
545;SDS011;259;53.304;9.816;2023-01-31T11:04:24;4.90;;;3.43;;
545;SDS011;259;53.304;9.816;2023-01-31T11:06:59;4.60;;;2.90;;
545;SDS011;259;53.304;9.816;2023-01-31T11:09:28;4.40;;;2.50;;
545;SDS011;259;53.304;9.816;2023-01-31T11:11:59;4.33;;;3.13;;
545;SDS011;259;53.304;9.816;2023-01-31T11:14:28;4.10;;;2.83;;
545;SDS011;259;53.304;9.816;2023-01-31T11:17:02;4.53;;;2.83;;
545;SDS011;259;53.304;9.816;2023-01-31T11:19:44;3.17;;;2.90;;
545;SDS011;259;53.304;9.816;2023-01-31T11:22:18;4.00;;;2.60;;
545;SDS011;259;53.304;9.816;2023-01-31T11:24:52;4.63;;;3.00;;
545;SDS011;259;53.304;9.816;2023-01-31T11:27:39;3.23;;;2.80;;
545;SDS011;259;53.304;9.816;2023-01-31T11:30:30;4.53;;;3.00;;
545;SDS011;259;53.304;9.816;2023-01-31T11:32:56;2.60;;;2.30;;
545;SDS011;259;53.304;9.816;2023-01-31T11:35:27;4.03;;;3.07;;
545;SDS011;259;53.304;9.816;2023-01-31T11:38:00;3.43;;;2.63;;
545;SDS011;259;53.304;9.816;2023-01-31T11:40:39;3.83;;;2.40;;
545;SDS011;259;53.304;9.816;2023-01-31T11:43:06;2.87;;;2.50;;
545;SDS011;259;53.304;9.816;2023-01-31T11:45:53;3.53;;;2.63;;
545;SDS011;259;53.304;9.816;2023-01-31T11:48:24;6.17;;;2.97;;
545;SDS011;259;53.304;9.816;2023-01-31T11:50:57;3.90;;;2.67;;
545;SDS011;259;53.304;9.816;2023-01-31T11:56:22;3.93;;;2.73;;
545;SDS011;259;53.304;9.816;2023-01-31T11:58:52;4.10;;;2.07;;
545;SDS011;259;53.304;9.816;2023-01-31T12:01:25;4.77;;;2.70;;
545;SDS011;259;53.304;9.816;2023-01-31T12:03:53;5.80;;;2.50;;
545;SDS011;259;53.304;9.816;2023-01-31T12:09:00;3.17;;;2.00;;
545;SDS011;259;53.304;9.816;2023-01-31T12:11:48;5.83;;;2.20;;
545;SDS011;259;53.304;9.816;2023-01-31T12:14:17;2.87;;;2.00;;
545;SDS011;259;53.304;9.816;2023-01-31T12:16:43;3.00;;;2.40;;
545;SDS011;259;53.304;9.816;2023-01-31T12:35:55;1.57;;;1.47;;
545;SDS011;259;53.304;9.816;2023-01-31T12:41:39;2.70;;;2.30;;
545;SDS011;259;53.304;9.816;2023-01-31T12:55:40;1.63;;;1.53;;
545;SDS011;259;53.304;9.816;2023-01-31T12:58:27;4.00;;;1.80;;
545;SDS011;259;53.304;9.816;2023-01-31T13:01:30;10.57;;;3.30;;
545;SDS011;259;53.304;9.816;2023-01-31T13:06:57;15.63;;;2.90;;
545;SDS011;259;53.304;9.816;2023-01-31T13:09:31;115.40;;;76.23;;
545;SDS011;259;53.304;9.816;2023-01-31T13:12:04;99.47;;;71.37;;
545;SDS011;259;53.304;9.816;2023-01-31T13:14:41;64.87;;;43.17;;
545;SDS011;259;53.304;9.816;2023-01-31T13:17:13;59.00;;;38.17;;
545;SDS011;259;53.304;9.816;2023-01-31T13:22:34;54.23;;;36.20;;
545;SDS011;259;53.304;9.816;2023-01-31T13:28:04;45.83;;;32.23;;
545;SDS011;259;53.304;9.816;2023-01-31T13:30:55;50.40;;;33.30;;
545;SDS011;259;53.304;9.816;2023-01-31T13:33:30;40.50;;;29.70;;
545;SDS011;259;53.304;9.816;2023-01-31T13:38:49;37.53;;;25.37;;
545;SDS011;259;53.304;9.816;2023-01-31T13:41:21;38.17;;;27.00;;
545;SDS011;259;53.304;9.816;2023-01-31T13:43:55;32.33;;;24.60;;
545;SDS011;259;53.304;9.816;2023-01-31T13:46:23;32.07;;;23.93;;
545;SDS011;259;53.304;9.816;2023-01-31T13:52:04;28.00;;;22.33;;
545;SDS011;259;53.304;9.816;2023-01-31T13:54:56;27.80;;;21.20;;
545;SDS011;259;53.304;9.816;2023-01-31T13:57:28;26.70;;;20.33;;
545;SDS011;259;53.304;9.816;2023-01-31T14:00:09;27.47;;;18.63;;
545;SDS011;259;53.304;9.816;2023-01-31T14:03:03;25.83;;;18.73;;
545;SDS011;259;53.304;9.816;2023-01-31T14:14:16;140.37;;;124.83;;
545;SDS011;259;53.304;9.816;2023-01-31T14:17:09;73.43;;;65.57;;
545;SDS011;259;53.304;9.816;2023-01-31T14:22:21;72.03;;;64.30;;
545;SDS011;259;53.304;9.816;2023-01-31T14:25:00;65.87;;;58.77;;
545;SDS011;259;53.304;9.816;2023-01-31T14:27:29;60.13;;;54.13;;
545;SDS011;259;53.304;9.816;2023-01-31T14:30:36;56.87;;;50.87;;
545;SDS011;259;53.304;9.816;2023-01-31T14:50:22;37.07;;;33.00;;
545;SDS011;259;53.304;9.816;2023-01-31T14:53:34;45.20;;;30.70;;
545;SDS011;259;53.304;9.816;2023-01-31T14:59:55;27.73;;;23.70;;
545;SDS011;259;53.304;9.816;2023-01-31T15:05:15;24.87;;;20.50;;
545;SDS011;259;53.304;9.816;2023-01-31T15:08:47;26.93;;;18.37;;
545;SDS011;259;53.304;9.816;2023-01-31T15:13:33;18.23;;;16.23;;
545;SDS011;259;53.304;9.816;2023-01-31T15:16:18;14.43;;;12.93;;
545;SDS011;259;53.304;9.816;2023-01-31T15:21:52;25.10;;;14.53;;
545;SDS011;259;53.304;9.816;2023-01-31T15:27:06;12.93;;;11.20;;
545;SDS011;259;53.304;9.816;2023-01-31T15:32:38;17.13;;;9.60;;
545;SDS011;259;53.304;9.816;2023-01-31T15:35:31;17.70;;;9.60;;
545;SDS011;259;53.304;9.816;2023-01-31T15:40:43;13.00;;;8.70;;
545;SDS011;259;53.304;9.816;2023-01-31T15:43:22;10.43;;;6.83;;
545;SDS011;259;53.304;9.816;2023-01-31T15:45:49;12.03;;;7.90;;
545;SDS011;259;53.304;9.816;2023-01-31T15:48:18;7.40;;;6.60;;
545;SDS011;259;53.304;9.816;2023-01-31T15:50:52;13.60;;;7.20;;
545;SDS011;259;53.304;9.816;2023-01-31T15:53:24;19.73;;;7.20;;
545;SDS011;259;53.304;9.816;2023-01-31T15:55:56;13.13;;;6.20;;
545;SDS011;259;53.304;9.816;2023-01-31T15:58:26;10.93;;;6.37;;
545;SDS011;259;53.304;9.816;2023-01-31T16:00:54;10.77;;;5.50;;
545;SDS011;259;53.304;9.816;2023-01-31T16:03:27;9.63;;;5.93;;
545;SDS011;259;53.304;9.816;2023-01-31T16:06:03;9.87;;;5.30;;
545;SDS011;259;53.304;9.816;2023-01-31T16:08:41;9.97;;;5.27;;
545;SDS011;259;53.304;9.816;2023-01-31T16:11:07;7.03;;;4.57;;
545;SDS011;259;53.304;9.816;2023-01-31T16:13:37;6.93;;;4.13;;
545;SDS011;259;53.304;9.816;2023-01-31T16:16:06;5.20;;;4.67;;
545;SDS011;259;53.304;9.816;2023-01-31T16:18:38;5.93;;;4.10;;
545;SDS011;259;53.304;9.816;2023-01-31T16:24:08;5.43;;;3.83;;
545;SDS011;259;53.304;9.816;2023-01-31T16:29:42;4.63;;;3.80;;
545;SDS011;259;53.304;9.816;2023-01-31T16:32:19;5.57;;;3.33;;
545;SDS011;259;53.304;9.816;2023-01-31T16:35:23;5.00;;;3.43;;
545;SDS011;259;53.304;9.816;2023-01-31T16:40:29;6.70;;;3.70;;
545;SDS011;259;53.304;9.816;2023-01-31T16:43:32;3.63;;;3.23;;
545;SDS011;259;53.304;9.816;2023-01-31T16:46:38;7.07;;;3.27;;
545;SDS011;259;53.304;9.816;2023-01-31T16:49:04;4.90;;;3.47;;
545;SDS011;259;53.304;9.816;2023-01-31T16:51:49;4.80;;;2.97;;
545;SDS011;259;53.304;9.816;2023-01-31T16:54:20;6.27;;;3.37;;
545;SDS011;259;53.304;9.816;2023-01-31T17:02:03;3.50;;;2.90;;
545;SDS011;259;53.304;9.816;2023-01-31T17:04:40;5.57;;;3.23;;
545;SDS011;259;53.304;9.816;2023-01-31T17:07:11;3.13;;;2.40;;
545;SDS011;259;53.304;9.816;2023-01-31T17:09:44;3.67;;;2.47;;
545;SDS011;259;53.304;9.816;2023-01-31T17:12:19;2.60;;;2.37;;
545;SDS011;259;53.304;9.816;2023-01-31T17:14:48;3.10;;;2.20;;
545;SDS011;259;53.304;9.816;2023-01-31T17:17:20;3.20;;;2.40;;
545;SDS011;259;53.304;9.816;2023-01-31T17:19:48;4.70;;;2.67;;
545;SDS011;259;53.304;9.816;2023-01-31T17:22:13;5.50;;;2.70;;
545;SDS011;259;53.304;9.816;2023-01-31T17:24:39;4.03;;;2.80;;
545;SDS011;259;53.304;9.816;2023-01-31T17:27:05;6.97;;;2.57;;
545;SDS011;259;53.304;9.816;2023-01-31T17:29:32;5.50;;;2.50;;
545;SDS011;259;53.304;9.816;2023-01-31T17:31:58;3.60;;;2.50;;
545;SDS011;259;53.304;9.816;2023-01-31T17:34:25;2.97;;;2.47;;
545;SDS011;259;53.304;9.816;2023-01-31T17:36:50;3.60;;;2.67;;
545;SDS011;259;53.304;9.816;2023-01-31T17:39:16;2.40;;;2.20;;
545;SDS011;259;53.304;9.816;2023-01-31T17:41:42;3.47;;;2.47;;
545;SDS011;259;53.304;9.816;2023-01-31T17:44:11;2.77;;;2.10;;
545;SDS011;259;53.304;9.816;2023-01-31T17:46:38;3.40;;;2.20;;
545;SDS011;259;53.304;9.816;2023-01-31T17:49:04;2.80;;;2.13;;
545;SDS011;259;53.304;9.816;2023-01-31T17:51:29;3.03;;;2.60;;
545;SDS011;259;53.304;9.816;2023-01-31T17:53:55;2.40;;;2.03;;
545;SDS011;259;53.304;9.816;2023-01-31T17:56:21;4.23;;;2.40;;
545;SDS011;259;53.304;9.816;2023-01-31T17:58:46;3.37;;;1.80;;
545;SDS011;259;53.304;9.816;2023-01-31T18:01:13;3.50;;;2.30;;
545;SDS011;259;53.304;9.816;2023-01-31T18:03:39;3.10;;;2.10;;
545;SDS011;259;53.304;9.816;2023-01-31T18:06:06;3.53;;;2.40;;
545;SDS011;259;53.304;9.816;2023-01-31T18:08:33;3.73;;;2.20;;
545;SDS011;259;53.304;9.816;2023-01-31T18:11:09;2.83;;;1.90;;
545;SDS011;259;53.304;9.816;2023-01-31T18:13:38;3.97;;;2.03;;
545;SDS011;259;53.304;9.816;2023-01-31T18:16:05;4.33;;;2.10;;
545;SDS011;259;53.304;9.816;2023-01-31T18:18:36;2.67;;;1.83;;
545;SDS011;259;53.304;9.816;2023-01-31T18:21:10;2.50;;;2.13;;
545;SDS011;259;53.304;9.816;2023-01-31T18:23:39;2.97;;;2.07;;
545;SDS011;259;53.304;9.816;2023-01-31T18:26:06;2.40;;;2.20;;
545;SDS011;259;53.304;9.816;2023-01-31T18:28:33;3.20;;;2.20;;
545;SDS011;259;53.304;9.816;2023-01-31T18:31:00;4.53;;;2.03;;
545;SDS011;259;53.304;9.816;2023-01-31T18:33:34;2.33;;;1.50;;
545;SDS011;259;53.304;9.816;2023-01-31T18:36:01;2.37;;;2.03;;
545;SDS011;259;53.304;9.816;2023-01-31T18:38:28;3.67;;;2.20;;
545;SDS011;259;53.304;9.816;2023-01-31T18:40:54;2.43;;;1.70;;
545;SDS011;259;53.304;9.816;2023-01-31T18:43:20;2.77;;;1.87;;
545;SDS011;259;53.304;9.816;2023-01-31T18:45:47;2.20;;;1.30;;
545;SDS011;259;53.304;9.816;2023-01-31T18:48:13;2.00;;;1.73;;
545;SDS011;259;53.304;9.816;2023-01-31T18:50:39;1.67;;;1.47;;
545;SDS011;259;53.304;9.816;2023-01-31T18:53:05;1.90;;;1.70;;
545;SDS011;259;53.304;9.816;2023-01-31T18:55:31;2.70;;;1.70;;
545;SDS011;259;53.304;9.816;2023-01-31T18:57:56;2.33;;;1.97;;
545;SDS011;259;53.304;9.816;2023-01-31T19:00:22;3.93;;;2.17;;
545;SDS011;259;53.304;9.816;2023-01-31T19:02:49;3.30;;;1.40;;
545;SDS011;259;53.304;9.816;2023-01-31T19:05:18;3.07;;;2.10;;
545;SDS011;259;53.304;9.816;2023-01-31T19:07:45;2.20;;;1.50;;
545;SDS011;259;53.304;9.816;2023-01-31T19:10:12;3.27;;;1.67;;
545;SDS011;259;53.304;9.816;2023-01-31T19:12:38;1.87;;;1.50;;
545;SDS011;259;53.304;9.816;2023-01-31T19:15:08;2.13;;;1.63;;
545;SDS011;259;53.304;9.816;2023-01-31T19:17:36;2.60;;;1.77;;